createdAt,value
2023-05-09T00:00:41.205Z,10.18
2023-05-09T00:03:09.008Z,10.18
2023-05-09T00:05:37.202Z,10.10
2023-05-09T00:08:05.322Z,10.08
2023-05-09T00:10:34.545Z,10.21
2023-05-09T00:13:03.051Z,10.24
2023-05-09T00:15:31.968Z,10.14
2023-05-09T00:17:59.751Z,10.08
2023-05-09T00:20:28.851Z,10.04
2023-05-09T00:22:56.848Z,10.08
2023-05-09T00:25:24.844Z,10.08
2023-05-09T00:27:54.363Z,10.09
2023-05-09T00:30:22.164Z,10.09
2023-05-09T00:32:49.843Z,10.01
2023-05-09T00:35:18.552Z,9.97
2023-05-09T00:37:46.250Z,9.94
2023-05-09T00:40:14.382Z,9.89
2023-05-09T00:42:42.547Z,9.83
2023-05-09T00:45:12.931Z,9.83
2023-05-09T00:47:45.593Z,9.93
2023-05-09T00:50:13.826Z,9.94
2023-05-09T00:52:42.184Z,9.82
2023-05-09T00:55:10.706Z,9.72
2023-05-09T00:57:38.819Z,9.74
2023-05-09T01:00:12.891Z,9.69
2023-05-09T01:02:43.254Z,9.52
2023-05-09T01:05:11.960Z,9.49
2023-05-09T01:07:45.761Z,9.46
2023-05-09T01:10:21.964Z,9.43
2023-05-09T01:13:00.271Z,9.50
2023-05-09T01:15:32.679Z,9.57
2023-05-09T01:18:08.247Z,9.60
2023-05-09T01:20:39.923Z,9.60
2023-05-09T01:23:28.160Z,9.50
2023-05-09T01:26:03.208Z,9.41
2023-05-09T01:31:35.750Z,9.39
2023-05-09T01:34:06.327Z,9.28
2023-05-09T01:36:38.576Z,9.26
2023-05-09T01:39:07.943Z,9.22
2023-05-09T01:41:38.957Z,9.17
2023-05-09T01:44:11.121Z,9.15
2023-05-09T01:46:41.642Z,9.16
2023-05-09T01:49:10.039Z,9.16
2023-05-09T01:51:41.601Z,9.25
2023-05-09T01:54:12.811Z,9.26
2023-05-09T01:56:43.800Z,9.22
2023-05-09T01:59:16.077Z,9.16
2023-05-09T02:01:46.430Z,9.16
2023-05-09T02:04:16.926Z,9.17
2023-05-09T02:06:47.278Z,9.20
2023-05-09T02:09:15.050Z,9.22
2023-05-09T02:11:42.838Z,9.19
2023-05-09T02:14:11.175Z,9.27
2023-05-09T02:16:40.031Z,9.34
2023-05-09T02:19:09.245Z,9.29
2023-05-09T02:21:38.468Z,9.38
2023-05-09T02:24:07.114Z,9.36
2023-05-09T02:26:36.944Z,9.37
2023-05-09T02:29:07.628Z,9.41
2023-05-09T02:31:36.515Z,9.37
2023-05-09T02:34:06.252Z,9.32
2023-05-09T02:36:36.028Z,9.31
2023-05-09T02:39:03.995Z,9.34
2023-05-09T02:41:32.191Z,9.31
2023-05-09T02:43:59.797Z,9.38
2023-05-09T02:46:27.628Z,9.38
2023-05-09T02:48:55.787Z,9.41
2023-05-09T02:51:23.465Z,9.39
2023-05-09T02:53:52.532Z,9.30
2023-05-09T02:56:20.729Z,9.30
2023-05-09T02:58:51.265Z,9.35
2023-05-09T03:01:19.084Z,9.26
2023-05-09T03:03:47.331Z,9.23
2023-05-09T03:06:15.339Z,9.21
2023-05-09T03:08:43.023Z,9.13
2023-05-09T03:11:12.384Z,9.11
2023-05-09T03:13:40.003Z,9.07
2023-05-09T03:16:08.511Z,9.07
2023-05-09T03:18:36.239Z,9.11
2023-05-09T03:21:04.376Z,9.09
2023-05-09T03:23:32.092Z,9.00
2023-05-09T03:26:00.011Z,8.97
2023-05-09T03:28:29.436Z,8.94
2023-05-09T03:30:57.491Z,8.82
2023-05-09T03:33:25.283Z,8.76
2023-05-09T03:35:53.254Z,8.76
2023-05-09T03:38:20.916Z,8.67
2023-05-09T03:40:48.601Z,8.68
2023-05-09T03:43:16.677Z,8.68
2023-05-09T03:45:46.082Z,8.67
2023-05-09T03:48:13.844Z,8.56
2023-05-09T03:50:42.465Z,8.59
2023-05-09T03:53:10.409Z,8.46
2023-05-09T03:55:38.136Z,8.42
2023-05-09T03:58:06.187Z,8.34
2023-05-09T04:00:33.902Z,8.27
2023-05-09T04:03:03.069Z,8.16
2023-05-09T04:05:31.425Z,8.21
2023-05-09T04:07:59.137Z,8.22
2023-05-09T04:10:26.852Z,8.26
2023-05-09T04:12:54.970Z,8.14
2023-05-09T04:15:22.695Z,8.09
2023-05-09T04:17:50.352Z,8.12
2023-05-09T04:20:20.470Z,8.15
2023-05-09T04:22:48.243Z,8.10
2023-05-09T04:25:17.000Z,8.13
2023-05-09T04:27:45.269Z,8.23
2023-05-09T04:30:13.582Z,8.33
2023-05-09T04:32:45.631Z,8.28
2023-05-09T04:35:13.957Z,8.20
2023-05-09T04:37:43.230Z,8.22
2023-05-09T04:40:12.099Z,8.32
2023-05-09T04:42:40.473Z,8.39
2023-05-09T04:45:09.322Z,8.52
2023-05-09T04:47:37.276Z,8.57
2023-05-09T04:50:05.714Z,8.61
2023-05-09T04:52:33.654Z,8.64
2023-05-09T04:55:03.450Z,8.67
2023-05-09T04:57:31.418Z,8.78
2023-05-09T04:59:59.174Z,8.71
2023-05-09T05:02:27.206Z,8.71
2023-05-09T05:05:06.225Z,8.73
2023-05-09T05:07:38.775Z,8.68
2023-05-09T05:10:09.173Z,8.64
2023-05-09T05:12:36.977Z,8.73
2023-05-09T05:15:05.541Z,8.69
2023-05-09T05:17:33.353Z,8.64
2023-05-09T05:20:02.734Z,8.74
2023-05-09T05:22:32.620Z,8.89
2023-05-09T05:25:01.190Z,8.95
2023-05-09T05:27:30.607Z,9.09
2023-05-09T05:29:58.660Z,9.14
2023-05-09T05:32:26.406Z,9.22
2023-05-09T05:34:54.383Z,9.32
2023-05-09T05:37:22.024Z,9.44
2023-05-09T05:39:52.067Z,9.52
2023-05-09T05:42:19.684Z,9.64
2023-05-09T05:44:48.722Z,9.70
2023-05-09T05:47:16.806Z,9.79
2023-05-09T05:49:44.714Z,9.83
2023-05-09T05:52:12.357Z,10.02
2023-05-09T05:54:40.342Z,10.00
2023-05-09T05:57:08.126Z,10.04
2023-05-09T05:59:36.067Z,10.08
2023-05-09T06:02:05.599Z,10.15
2023-05-09T06:04:33.342Z,10.28
2023-05-09T06:07:01.061Z,10.39
2023-05-09T06:09:29.257Z,10.39
2023-05-09T06:11:56.954Z,10.43
2023-05-09T06:14:24.630Z,10.58
2023-05-09T06:16:53.504Z,10.64
2023-05-09T06:19:22.536Z,10.67
2023-05-09T06:21:50.187Z,10.65
2023-05-09T06:24:27.983Z,10.77
2023-05-09T06:27:03.434Z,10.92
2023-05-09T06:29:31.097Z,10.95
2023-05-09T06:31:58.840Z,10.98
2023-05-09T06:34:27.874Z,10.90
2023-05-09T06:36:55.965Z,11.04
2023-05-09T06:39:23.667Z,11.13
2023-05-09T06:41:51.818Z,11.14
2023-05-09T06:44:19.847Z,11.05
2023-05-09T06:46:47.627Z,11.08
2023-05-09T06:49:15.906Z,11.11
2023-05-09T06:51:44.894Z,11.14
2023-05-09T06:54:12.928Z,11.17
2023-05-09T06:56:41.374Z,11.26
2023-05-09T06:59:13.126Z,11.31
2023-05-09T07:01:41.388Z,11.35
2023-05-09T07:04:09.158Z,11.41
2023-05-09T07:06:36.925Z,11.49
2023-05-09T07:09:06.395Z,11.44
2023-05-09T07:11:36.150Z,11.52
2023-05-09T07:14:03.974Z,11.64
2023-05-09T07:16:31.959Z,11.72
2023-05-09T07:18:59.624Z,11.89
2023-05-09T07:21:27.417Z,11.99
2023-05-09T07:23:56.469Z,11.94
2023-05-09T07:26:25.510Z,12.15
2023-05-09T07:28:53.157Z,12.05
2023-05-09T07:31:21.295Z,12.18
2023-05-09T07:33:49.347Z,12.13
2023-05-09T07:36:17.192Z,12.28
2023-05-09T07:38:45.305Z,12.37
2023-05-09T07:41:13.036Z,12.56
2023-05-09T07:43:42.390Z,12.59
2023-05-09T07:46:10.224Z,12.64
2023-05-09T07:48:38.280Z,12.74
2023-05-09T07:51:06.069Z,12.93
2023-05-09T07:53:34.085Z,13.01
2023-05-09T07:56:01.791Z,13.09
2023-05-09T07:58:29.646Z,13.25
2023-05-09T08:00:59.092Z,13.33
2023-05-09T08:03:27.313Z,13.38
2023-05-09T08:05:56.483Z,13.43
2023-05-09T08:08:24.585Z,13.46
2023-05-09T08:10:52.320Z,13.56
2023-05-09T08:13:20.448Z,13.60
2023-05-09T08:15:48.341Z,13.68
2023-05-09T08:18:18.484Z,13.76
2023-05-09T08:20:46.461Z,13.96
2023-05-09T08:23:14.925Z,14.01
2023-05-09T08:25:43.075Z,14.12
2023-05-09T08:28:11.209Z,14.14
2023-05-09T08:30:39.338Z,14.33
2023-05-09T08:33:07.618Z,14.45
2023-05-09T08:35:36.695Z,14.48
2023-05-09T08:38:04.729Z,14.47
2023-05-09T08:40:36.774Z,14.45
2023-05-09T08:43:07.473Z,14.49
2023-05-09T08:45:40.546Z,14.59
2023-05-09T08:48:09.929Z,14.76
2023-05-09T08:50:40.683Z,14.97
2023-05-09T08:53:09.012Z,15.18
2023-05-09T08:55:37.112Z,15.48
2023-05-09T08:58:05.552Z,15.62
2023-05-09T09:00:34.697Z,15.71
2023-05-09T09:03:04.505Z,15.82
2023-05-09T09:05:40.716Z,15.89
2023-05-09T09:08:12.283Z,16.05
2023-05-09T09:10:43.446Z,16.13
2023-05-09T09:13:13.851Z,16.23
2023-05-09T09:15:44.282Z,16.30
2023-05-09T09:18:17.762Z,16.35
2023-05-09T09:20:48.965Z,16.49
2023-05-09T09:23:21.065Z,16.57
2023-05-09T09:25:49.162Z,16.72
2023-05-09T09:28:17.722Z,16.90
2023-05-09T09:30:46.022Z,17.00
2023-05-09T09:33:21.671Z,17.02
2023-05-09T09:35:51.019Z,17.01
2023-05-09T09:38:21.323Z,16.94
2023-05-09T09:40:56.011Z,17.02
2023-05-09T09:43:29.834Z,17.07
2023-05-09T09:45:58.599Z,17.27
2023-05-09T09:48:26.736Z,17.40
2023-05-09T09:50:56.848Z,17.61
2023-05-09T09:53:30.153Z,17.69
2023-05-09T09:55:58.776Z,17.69
2023-05-09T09:58:26.643Z,17.81
2023-05-09T10:01:08.520Z,18.02
2023-05-09T10:03:37.716Z,18.08
2023-05-09T10:06:06.128Z,18.12
2023-05-09T10:08:35.777Z,17.99
2023-05-09T10:11:03.847Z,17.93
2023-05-09T10:13:31.661Z,17.87
2023-05-09T10:16:00.784Z,17.82
2023-05-09T10:18:30.709Z,17.98
2023-05-09T10:21:04.616Z,18.15
2023-05-09T10:23:38.579Z,18.27
2023-05-09T10:26:13.552Z,18.20
2023-05-09T10:28:46.557Z,18.09
2023-05-09T10:31:20.160Z,18.44
2023-05-09T10:33:49.526Z,18.51
2023-05-09T10:36:20.581Z,18.79
2023-05-09T10:38:51.190Z,19.01
2023-05-09T10:41:19.738Z,19.15
2023-05-09T10:43:47.657Z,19.22
2023-05-09T10:46:16.441Z,19.08
2023-05-09T10:48:45.686Z,18.98
2023-05-09T10:51:14.473Z,18.95
2023-05-09T10:53:43.847Z,18.88
2023-05-09T10:56:24.182Z,19.10
2023-05-09T10:58:51.948Z,19.23
2023-05-09T11:04:18.249Z,19.43
2023-05-09T11:06:49.746Z,19.22
2023-05-09T11:09:32.999Z,19.21
2023-05-09T11:12:11.490Z,19.21
2023-05-09T11:14:44.389Z,19.35
2023-05-09T11:17:14.223Z,19.46
2023-05-09T11:20:01.951Z,19.50
2023-05-09T11:22:32.697Z,19.45
2023-05-09T11:25:05.563Z,19.27
2023-05-09T11:27:46.553Z,19.42
2023-05-09T11:30:15.902Z,19.31
2023-05-09T11:32:49.193Z,19.51
2023-05-09T11:35:19.362Z,19.43
2023-05-09T11:37:49.287Z,19.53
2023-05-09T11:40:18.378Z,19.61
2023-05-09T11:42:50.040Z,19.72
2023-05-09T11:45:18.561Z,19.85
2023-05-09T11:47:47.714Z,19.96
2023-05-09T11:50:18.014Z,19.87
2023-05-09T11:52:46.356Z,19.98
2023-05-09T11:55:15.883Z,19.74
2023-05-09T11:57:49.212Z,19.88
2023-05-09T12:00:18.328Z,20.10
2023-05-09T12:02:47.971Z,20.00
2023-05-09T12:05:18.422Z,20.10
2023-05-09T12:07:46.905Z,20.22
2023-05-09T12:10:16.945Z,20.16
2023-05-09T12:12:47.341Z,20.29
2023-05-09T12:15:17.665Z,20.28
2023-05-09T12:17:48.144Z,20.34
2023-05-09T12:20:17.931Z,20.43
2023-05-09T12:22:45.835Z,20.73
2023-05-09T12:25:14.773Z,21.04
2023-05-09T12:27:43.396Z,21.09
2023-05-09T12:30:13.907Z,21.17
2023-05-09T12:32:44.021Z,21.18
2023-05-09T12:35:11.820Z,21.15
2023-05-09T12:37:39.617Z,21.24
2023-05-09T12:40:12.835Z,20.94
2023-05-09T12:42:44.156Z,20.96
2023-05-09T12:45:13.404Z,20.74
2023-05-09T12:47:42.997Z,20.87
2023-05-09T12:50:13.583Z,20.87
2023-05-09T12:53:01.411Z,20.99
2023-05-09T12:55:31.920Z,20.84
2023-05-09T12:58:01.388Z,21.00
2023-05-09T13:00:30.312Z,20.48
2023-05-09T13:02:59.445Z,20.49
2023-05-09T13:05:28.388Z,20.62
2023-05-09T13:07:58.565Z,20.85
2023-05-09T13:10:28.712Z,20.70
2023-05-09T13:12:57.290Z,20.87
2023-05-09T13:15:27.144Z,21.04
2023-05-09T13:17:55.107Z,21.33
2023-05-09T13:20:24.059Z,21.43
2023-05-09T13:22:52.680Z,21.39
2023-05-09T13:25:20.887Z,21.30
2023-05-09T13:27:48.640Z,21.50
2023-05-09T13:30:17.603Z,21.39
2023-05-09T13:32:47.406Z,21.30
2023-05-09T13:35:16.213Z,21.57
2023-05-09T13:37:45.872Z,21.74
2023-05-09T13:40:14.844Z,21.29
2023-05-09T13:42:43.488Z,21.23
2023-05-09T13:45:12.473Z,21.03
2023-05-09T13:47:40.472Z,20.90
2023-05-09T13:50:09.743Z,21.21
2023-05-09T13:52:37.429Z,21.52
2023-05-09T13:55:07.461Z,21.33
2023-05-09T13:57:35.634Z,21.14
2023-05-09T14:00:03.471Z,21.40
2023-05-09T14:02:31.257Z,21.39
2023-05-09T14:05:00.267Z,21.41
2023-05-09T14:07:28.224Z,21.67
2023-05-09T14:10:15.812Z,21.58
2023-05-09T14:12:46.928Z,21.19
2023-05-09T14:15:14.742Z,21.43
2023-05-09T14:17:43.820Z,21.67
2023-05-09T14:20:12.267Z,21.69
2023-05-09T14:22:40.481Z,21.48
2023-05-09T14:25:08.776Z,21.58
2023-05-09T14:27:38.084Z,21.47
2023-05-09T14:30:08.607Z,21.24
2023-05-09T14:32:36.158Z,21.16
2023-05-09T14:35:04.248Z,21.24
2023-05-09T14:37:32.077Z,21.06
2023-05-09T14:40:05.755Z,21.33
2023-05-09T14:42:33.786Z,21.44
2023-05-09T14:45:01.708Z,21.42
2023-05-09T14:47:31.267Z,21.46
2023-05-09T14:49:58.994Z,21.50
2023-05-09T14:52:26.686Z,21.55
2023-05-09T14:54:54.564Z,21.59
2023-05-09T14:57:22.797Z,21.63
2023-05-09T14:59:50.477Z,21.53
2023-05-09T15:02:18.599Z,21.48
2023-05-09T15:04:47.705Z,21.34
2023-05-09T15:07:15.808Z,21.27
2023-05-09T15:09:43.491Z,21.31
2023-05-09T15:12:11.278Z,21.19
2023-05-09T15:14:39.894Z,21.32
2023-05-09T15:17:07.828Z,21.25
2023-05-09T15:19:36.835Z,21.35
2023-05-09T15:22:06.105Z,21.36
2023-05-09T15:24:33.799Z,21.42
2023-05-09T15:27:02.499Z,21.41
2023-05-09T15:29:30.134Z,21.33
2023-05-09T15:31:58.459Z,21.35
2023-05-09T15:34:26.179Z,21.05
2023-05-09T15:36:53.819Z,20.90
2023-05-09T15:39:23.204Z,20.93
2023-05-09T15:41:50.878Z,21.02
2023-05-09T15:44:18.706Z,21.09
2023-05-09T15:46:46.809Z,21.05
2023-05-09T15:49:14.436Z,20.92
2023-05-09T15:51:42.244Z,20.83
2023-05-09T15:54:10.938Z,20.74
2023-05-09T15:56:40.027Z,20.65
2023-05-09T15:59:08.158Z,20.63
2023-05-09T16:01:36.308Z,20.43
2023-05-09T16:04:05.237Z,20.43
2023-05-09T16:06:34.047Z,20.17
2023-05-09T16:09:05.672Z,20.11
2023-05-09T16:11:33.380Z,20.04
2023-05-09T16:14:05.020Z,20.12
2023-05-09T16:16:33.255Z,20.15
2023-05-09T16:19:02.356Z,20.10
2023-05-09T16:21:33.236Z,19.96
2023-05-09T16:24:02.793Z,19.87
2023-05-09T16:26:30.541Z,19.91
2023-05-09T16:28:58.898Z,19.75
2023-05-09T16:31:27.942Z,19.73
2023-05-09T16:33:56.228Z,19.74
2023-05-09T16:36:23.860Z,19.75
2023-05-09T16:38:51.528Z,19.79
2023-05-09T16:41:20.473Z,19.85
2023-05-09T16:43:48.279Z,19.75
2023-05-09T16:46:16.177Z,19.74
2023-05-09T16:48:45.876Z,19.76
2023-05-09T16:51:13.490Z,19.60
2023-05-09T16:53:41.840Z,19.59
2023-05-09T16:56:10.997Z,19.52
2023-05-09T16:58:38.762Z,19.48
2023-05-09T17:01:07.243Z,19.40
2023-05-09T17:03:34.940Z,19.41
2023-05-09T17:06:03.922Z,19.31
2023-05-09T17:08:32.735Z,19.27
2023-05-09T17:11:01.003Z,19.26
2023-05-09T17:13:29.292Z,19.11
2023-05-09T17:15:57.391Z,19.17
2023-05-09T17:18:35.973Z,19.11
2023-05-09T17:21:07.167Z,19.09
2023-05-09T17:23:34.837Z,19.05
2023-05-09T17:26:03.740Z,19.02
2023-05-09T17:28:31.761Z,18.99
2023-05-09T17:30:59.500Z,19.01
2023-05-09T17:33:28.005Z,18.92
2023-05-09T17:35:55.858Z,18.91
2023-05-09T17:38:24.800Z,18.82
2023-05-09T17:40:52.942Z,18.82
2023-05-09T17:43:21.928Z,18.76
2023-05-09T17:45:49.655Z,18.71
2023-05-09T17:48:19.490Z,18.66
2023-05-09T17:50:47.211Z,18.74
2023-05-09T17:53:15.320Z,18.64
2023-05-09T17:55:44.332Z,18.61
2023-05-09T17:58:12.000Z,18.56
2023-05-09T18:00:40.266Z,18.50
2023-05-09T18:03:08.037Z,18.41
2023-05-09T18:05:35.809Z,18.29
2023-05-09T18:08:04.847Z,18.25
2023-05-09T18:10:32.511Z,18.13
2023-05-09T18:13:01.591Z,18.08
2023-05-09T18:15:29.712Z,17.97
2023-05-09T18:17:57.635Z,18.00
2023-05-09T18:20:25.754Z,17.93
2023-05-09T18:22:54.115Z,17.96
2023-05-09T18:25:22.020Z,17.89
2023-05-09T18:27:49.692Z,17.85
2023-05-09T18:30:19.993Z,17.76
2023-05-09T18:32:47.792Z,17.66
2023-05-09T18:35:16.246Z,17.63
2023-05-09T18:37:43.918Z,17.54
2023-05-09T18:40:15.916Z,17.54
2023-05-09T18:42:43.913Z,17.46
2023-05-09T18:45:12.453Z,17.43
2023-05-09T18:47:41.885Z,17.38
2023-05-09T18:50:10.587Z,17.40
2023-05-09T18:52:38.424Z,17.34
2023-05-09T18:55:07.028Z,17.32
2023-05-09T18:57:34.759Z,17.20
2023-05-09T19:00:02.450Z,17.10
2023-05-09T19:02:31.496Z,17.00
2023-05-09T19:05:01.614Z,16.91
2023-05-09T19:07:29.540Z,16.89
2023-05-09T19:09:57.232Z,16.82
2023-05-09T19:12:25.350Z,16.73
2023-05-09T19:14:53.059Z,16.70
2023-05-09T19:17:21.172Z,16.71
2023-05-09T19:19:48.920Z,16.61
2023-05-09T19:22:18.286Z,16.56
2023-05-09T19:24:46.011Z,16.44
2023-05-09T19:27:13.936Z,16.28
2023-05-09T19:29:41.698Z,16.19
2023-05-09T19:32:09.612Z,16.07
2023-05-09T19:34:37.516Z,16.00
2023-05-09T19:37:05.593Z,16.03
2023-05-09T19:39:34.634Z,15.99
2023-05-09T19:42:02.349Z,16.00
2023-05-09T19:44:30.735Z,15.96
2023-05-09T19:46:58.538Z,15.95
2023-05-09T19:49:27.118Z,15.81
2023-05-09T19:51:54.779Z,15.78
2023-05-09T19:54:26.837Z,15.76
2023-05-09T19:56:55.890Z,15.76
2023-05-09T19:59:24.635Z,15.72
2023-05-09T20:01:52.303Z,15.68
2023-05-09T20:04:21.675Z,15.68
2023-05-09T20:06:49.668Z,15.65
2023-05-09T20:09:20.852Z,15.67
2023-05-09T20:11:49.253Z,15.60
2023-05-09T20:14:18.456Z,15.61
2023-05-09T20:16:46.614Z,15.62
2023-05-09T20:19:15.679Z,15.59
2023-05-09T20:21:43.666Z,15.56
2023-05-09T20:24:11.748Z,15.54
2023-05-09T20:26:39.406Z,15.49
2023-05-09T20:29:07.513Z,15.46
2023-05-09T20:31:36.724Z,15.41
2023-05-09T20:34:05.157Z,15.41
2023-05-09T20:36:32.845Z,15.36
2023-05-09T20:39:00.622Z,15.33
2023-05-09T20:41:28.768Z,15.30
2023-05-09T20:44:03.377Z,15.32
2023-05-09T20:46:32.172Z,15.27
2023-05-09T20:49:01.474Z,15.22
2023-05-09T20:51:29.523Z,15.25
2023-05-09T20:53:57.211Z,15.23
2023-05-09T20:56:28.795Z,15.21
2023-05-09T20:58:59.776Z,15.20
2023-05-09T21:01:29.607Z,15.17
2023-05-09T21:03:57.414Z,15.16
2023-05-09T21:06:27.544Z,15.17
2023-05-09T21:08:55.411Z,15.17
2023-05-09T21:11:23.082Z,15.18
2023-05-09T21:13:51.765Z,15.15
2023-05-09T21:16:19.985Z,15.12
2023-05-09T21:18:47.796Z,15.10
2023-05-09T21:21:15.536Z,15.09
2023-05-09T21:23:44.923Z,15.06
2023-05-09T21:26:12.661Z,14.98
2023-05-09T21:28:40.239Z,14.94
2023-05-09T21:31:10.531Z,14.98
2023-05-09T21:33:39.072Z,14.94
2023-05-09T21:36:07.679Z,14.92
2023-05-09T21:38:35.436Z,14.85
2023-05-09T21:41:04.816Z,14.85
2023-05-09T21:43:32.557Z,14.91
2023-05-09T21:46:00.601Z,14.85
2023-05-09T21:48:28.355Z,14.79
2023-05-09T21:50:56.047Z,14.71
2023-05-09T21:53:24.114Z,14.70
2023-05-09T21:55:51.922Z,14.68
2023-05-09T21:58:20.954Z,14.68
2023-05-09T22:00:48.890Z,14.65
2023-05-09T22:03:16.684Z,14.58
2023-05-09T22:05:44.561Z,14.64
2023-05-09T22:08:12.343Z,14.62
2023-05-09T22:10:40.373Z,14.51
2023-05-09T22:13:08.184Z,14.49
2023-05-09T22:15:37.714Z,14.42
2023-05-09T22:18:05.693Z,14.45
2023-05-09T22:20:33.643Z,14.42
2023-05-09T22:23:01.481Z,14.42
2023-05-09T22:25:29.181Z,14.35
2023-05-09T22:27:56.935Z,14.36
2023-05-09T22:30:25.247Z,14.24
2023-05-09T22:32:54.618Z,14.20
2023-05-09T22:35:22.439Z,14.12
2023-05-09T22:37:50.418Z,14.04
2023-05-09T22:40:18.306Z,13.97
2023-05-09T22:42:46.387Z,13.90
2023-05-09T22:45:14.155Z,13.86
2023-05-09T22:47:42.254Z,13.88
2023-05-09T22:50:12.908Z,13.80
2023-05-09T22:52:40.622Z,13.74
2023-05-09T22:55:09.603Z,13.72
2023-05-09T22:57:37.252Z,13.68
2023-05-09T23:00:06.066Z,13.64
2023-05-09T23:02:34.543Z,13.60
2023-05-09T23:05:02.289Z,13.59
2023-05-09T23:07:31.275Z,13.51
2023-05-09T23:09:59.736Z,13.41
2023-05-09T23:12:27.521Z,13.33
2023-05-09T23:14:55.226Z,13.27
2023-05-09T23:17:23.596Z,13.31
2023-05-09T23:19:51.342Z,13.19
2023-05-09T23:22:18.982Z,13.24
2023-05-09T23:24:48.699Z,13.23
2023-05-09T23:27:16.378Z,13.17
2023-05-09T23:29:44.719Z,13.13
2023-05-09T23:32:12.342Z,13.10
2023-05-09T23:34:39.999Z,13.05
2023-05-09T23:37:07.962Z,13.04
2023-05-09T23:39:36.187Z,12.94
2023-05-09T23:42:05.422Z,12.85
2023-05-09T23:44:33.531Z,12.84
2023-05-09T23:47:01.791Z,12.77
2023-05-09T23:49:31.005Z,12.73
2023-05-09T23:51:58.704Z,12.67
2023-05-09T23:54:26.922Z,12.68
2023-05-09T23:56:56.619Z,12.57
2023-05-09T23:59:25.624Z,12.55
